Time;durP1;ratioP1;P1;durP2;ratioP2;P2;SDS_P1;SDS_P2;PMS_P1;PMS_P2;Temp;Humidity;BMP_temperature;BMP_pressure;BME280_temperature;BME280_humidity;BME280_pressure;Samples;Min_cycle;Max_cycle;Signal;HPM_P1;HPM_P2
2023/08/31 00:03:41;;;;;;;3.10;2.90;;;17.80;46.30;;;;;;10467829;28;20740;-73
2023/08/31 00:08:45;;;;;;;3.07;2.83;;;17.90;46.80;;;;;;10461080;28;20232;-72
2023/08/31 00:13:48;;;;;;;3.50;2.93;;;17.90;46.30;;;;;;10461359;28;20233;-72
2023/08/31 00:18:52;;;;;;;3.10;2.80;;;17.90;46.30;;;;;;10458710;28;20252;-73
2023/08/31 00:23:56;;;;;;;3.33;3.07;;;18.00;46.90;;;;;;10461544;28;20303;-73
2023/08/31 00:28:59;;;;;;;3.50;3.00;;;18.00;46.40;;;;;;10454122;28;20335;-72
2023/08/31 00:34:04;;;;;;;3.13;2.93;;;18.00;47.10;;;;;;10464981;28;20217;-72
2023/08/31 00:39:10;;;;;;;3.33;3.03;;;18.00;46.90;;;;;;10457462;28;20321;-72
2023/08/31 00:44:14;;;;;;;3.33;3.10;;;18.10;46.20;;;;;;10455748;28;20234;-72
2023/08/31 00:49:20;;;;;;;3.40;3.10;;;18.10;46.20;;;;;;10458437;28;20258;-72
2023/08/31 00:54:23;;;;;;;2.93;2.73;;;18.10;46.50;;;;;;10461158;28;20221;-72
2023/08/31 00:59:27;;;;;;;3.30;3.00;;;18.10;46.10;;;;;;10461255;28;20269;-73
2023/08/31 01:04:46;;;;;;;3.27;3.07;;;18.10;46.20;;;;;;10456892;28;20273;-72
2023/08/31 01:09:56;;;;;;;3.00;2.70;;;18.10;46.80;;;;;;10455842;28;20231;-72
2023/08/31 01:15:07;;;;;;;3.30;3.10;;;18.10;46.70;;;;;;10454559;28;20316;-72
2023/08/31 01:20:13;;;;;;;3.30;3.10;;;18.10;47.00;;;;;;10456935;28;20347;-72
2023/08/31 01:25:18;;;;;;;3.20;3.00;;;18.00;47.00;;;;;;10462437;28;20220;-72
2023/08/31 01:30:22;;;;;;;3.10;2.90;;;18.00;47.00;;;;;;10454521;28;20282;-72
2023/08/31 01:35:27;;;;;;;3.20;3.00;;;18.00;46.70;;;;;;10458525;28;20315;-72
2023/08/31 01:40:39;;;;;;;2.93;2.67;;;18.00;47.00;;;;;;10453270;28;20948;-72
2023/08/31 01:45:43;;;;;;;3.20;2.90;;;18.00;47.00;;;;;;10455157;28;20234;-72
2023/08/31 01:50:46;;;;;;;3.00;2.80;;;18.00;47.00;;;;;;10456667;28;20232;-73
2023/08/31 01:55:51;;;;;;;2.53;2.30;;;18.00;46.70;;;;;;10454821;28;20323;-73
2023/08/31 02:00:54;;;;;;;1.93;1.83;;;18.00;46.30;;;;;;10457196;28;20252;-73
2023/08/31 02:05:57;;;;;;;1.60;1.50;;;18.00;46.20;;;;;;10454737;28;20265;-72
2023/08/31 02:11:02;;;;;;;1.57;1.40;;;18.00;46.20;;;;;;10450972;28;20224;-73
2023/08/31 02:16:05;;;;;;;1.60;1.50;;;17.90;46.80;;;;;;10454259;28;20224;-72
2023/08/31 02:21:09;;;;;;;1.57;1.47;;;17.80;46.70;;;;;;10453998;28;20277;-72
2023/08/31 02:26:13;;;;;;;1.50;1.40;;;17.70;46.70;;;;;;10451205;28;20602;-73
2023/08/31 02:31:18;;;;;;;1.40;1.30;;;17.70;46.80;;;;;;10454158;28;20370;-73
2023/08/31 02:36:21;;;;;;;1.40;1.30;;;17.60;46.60;;;;;;10456238;28;20797;-73
2023/08/31 02:41:26;;;;;;;1.73;1.63;;;17.50;46.50;;;;;;10461024;28;20772;-72
2023/08/31 02:46:29;;;;;;;1.70;1.60;;;17.40;47.10;;;;;;10457013;28;20235;-73
2023/08/31 02:51:33;;;;;;;1.50;1.40;;;17.30;46.90;;;;;;10451812;28;20866;-73
2023/08/31 02:56:37;;;;;;;2.07;1.40;;;17.30;47.20;;;;;;10455377;28;20738;-72
2023/08/31 03:01:41;;;;;;;1.67;1.57;;;17.20;47.60;;;;;;10462521;28;20228;-72
2023/08/31 03:06:45;;;;;;;1.60;1.50;;;17.20;47.60;;;;;;10467847;28;20229;-73
2023/08/31 03:11:49;;;;;;;1.80;1.70;;;17.20;47.80;;;;;;10467695;28;20243;-73
2023/08/31 03:16:52;;;;;;;2.00;1.90;;;17.20;48.00;;;;;;10468839;28;20315;-72
2023/08/31 03:21:56;;;;;;;2.00;1.80;;;17.30;47.90;;;;;;10460511;28;20727;-73
2023/08/31 03:27:00;;;;;;;1.80;1.70;;;17.30;47.80;;;;;;10468343;28;20224;-72
2023/08/31 03:32:04;;;;;;;2.00;1.83;;;17.40;48.30;;;;;;10465057;28;20234;-72
2023/08/31 03:37:07;;;;;;;2.47;2.07;;;17.40;47.60;;;;;;10467439;28;20319;-72
2023/08/31 03:42:12;;;;;;;2.17;2.07;;;17.40;47.40;;;;;;10469812;28;20236;-72
2023/08/31 03:47:15;;;;;;;2.10;2.00;;;17.40;47.60;;;;;;10466486;28;20867;-72
2023/08/31 03:52:18;;;;;;;2.60;2.40;;;17.40;47.10;;;;;;10466848;28;20234;-72
2023/08/31 03:57:23;;;;;;;2.40;2.20;;;17.30;47.00;;;;;;10464294;28;20234;-72
2023/08/31 04:02:26;;;;;;;3.47;2.33;;;17.20;47.50;;;;;;10465484;28;20231;-73
2023/08/31 04:07:30;;;;;;;2.23;2.10;;;17.20;47.40;;;;;;10466754;28;20662;-73
2023/08/31 04:12:39;;;;;;;2.57;2.37;;;17.20;47.30;;;;;;10462337;28;20599;-72
2023/08/31 04:17:42;;;;;;;2.47;2.27;;;17.20;47.40;;;;;;10460157;28;20247;-72
2023/08/31 04:22:45;;;;;;;2.60;2.40;;;17.10;47.00;;;;;;10456272;28;20255;-72
2023/08/31 04:27:50;;;;;;;2.23;2.10;;;17.10;47.00;;;;;;10457791;28;20315;-73
2023/08/31 04:32:53;;;;;;;2.30;2.10;;;16.90;47.40;;;;;;10458471;28;20728;-72
2023/08/31 04:37:56;;;;;;;2.10;2.00;;;16.80;47.90;;;;;;10462218;28;20308;-73
2023/08/31 04:43:01;;;;;;;2.37;2.13;;;16.70;47.50;;;;;;10457393;28;20228;-73
2023/08/31 04:48:05;;;;;;;2.60;2.40;;;16.70;47.90;;;;;;10460679;28;20225;-72
2023/08/31 04:53:08;;;;;;;2.47;2.30;;;16.70;47.60;;;;;;10462564;28;20240;-72
2023/08/31 04:58:13;;;;;;;2.33;2.13;;;16.70;47.50;;;;;;10454944;28;20243;-72
2023/08/31 05:03:16;;;;;;;2.93;2.20;;;16.60;47.80;;;;;;10463020;28;20622;-73
2023/08/31 05:08:20;;;;;;;2.60;2.40;;;16.60;47.60;;;;;;10456877;28;20233;-72
2023/08/31 05:13:24;;;;;;;3.17;2.50;;;16.50;47.70;;;;;;10460536;28;20328;-73
2023/08/31 05:18:27;;;;;;;3.37;2.23;;;16.50;48.30;;;;;;10455544;28;20244;-72
2023/08/31 05:23:31;;;;;;;3.50;2.20;;;16.40;48.00;;;;;;10460141;28;20234;-73
2023/08/31 05:28:35;;;;;;;3.17;2.50;;;16.50;48.50;;;;;;10455570;28;20220;-73
2023/08/31 05:33:39;;;;;;;2.87;2.57;;;16.50;48.90;;;;;;10461816;28;20271;-72
2023/08/31 05:38:42;;;;;;;3.07;2.50;;;16.50;48.40;;;;;;10462182;28;20604;-72
2023/08/31 05:43:47;;;;;;;4.03;2.60;;;16.50;48.60;;;;;;10454665;28;20316;-72
2023/08/31 05:48:50;;;;;;;3.07;2.77;;;16.50;49.30;;;;;;10455571;28;20242;-72
2023/08/31 05:53:53;;;;;;;3.20;2.77;;;16.50;48.90;;;;;;10458757;28;20228;-72
2023/08/31 05:58:58;;;;;;;2.70;2.50;;;16.50;49.10;;;;;;10458070;28;20622;-73
2023/08/31 06:04:01;;;;;;;2.73;2.53;;;16.60;49.20;;;;;;10450987;28;20233;-73
2023/08/31 06:09:06;;;;;;;3.33;3.03;;;16.60;48.90;;;;;;10457084;28;20228;-72
2023/08/31 06:14:10;;;;;;;2.60;2.40;;;16.60;49.00;;;;;;10455293;28;20318;-72
2023/08/31 06:19:15;;;;;;;3.00;2.70;;;16.70;49.40;;;;;;10459449;28;20255;-73
2023/08/31 06:24:18;;;;;;;3.30;3.00;;;16.70;48.80;;;;;;10456021;28;20604;-72
2023/08/31 06:29:23;;;;;;;3.70;2.80;;;16.70;49.00;;;;;;10457650;28;20239;-72
2023/08/31 06:34:26;;;;;;;3.73;3.00;;;16.80;49.40;;;;;;10455611;28;20224;-72
2023/08/31 06:39:30;;;;;;;2.90;2.70;;;16.90;49.30;;;;;;10455165;28;20224;-72
2023/08/31 06:44:35;;;;;;;3.13;2.83;;;16.90;49.00;;;;;;10458723;28;20866;-73
2023/08/31 06:49:38;;;;;;;2.70;2.50;;;17.00;49.40;;;;;;10453708;28;20227;-72
2023/08/31 06:54:41;;;;;;;3.00;2.63;;;17.10;49.10;;;;;;10452463;28;20224;-72
2023/08/31 06:59:47;;;;;;;3.27;2.97;;;17.10;48.90;;;;;;10456454;28;20232;-72
2023/08/31 07:04:52;;;;;;;3.33;3.00;;;17.20;49.10;;;;;;10454106;28;20221;-73
2023/08/31 07:09:55;;;;;;;3.20;2.90;;;17.30;49.10;;;;;;10456897;28;20639;-73
2023/08/31 07:15:00;;;;;;;3.13;2.80;;;17.30;49.20;;;;;;10454254;28;20228;-73
2023/08/31 07:20:05;;;;;;;3.67;2.73;;;17.40;49.00;;;;;;10447224;28;20759;-71
2023/08/31 07:25:09;;;;;;;3.03;2.73;;;17.50;49.00;;;;;;10454823;28;20237;-72
2023/08/31 07:30:14;;;;;;;4.47;2.83;;;17.50;48.90;;;;;;10451553;28;20231;-72
2023/08/31 07:35:17;;;;;;;3.10;2.57;;;17.60;48.80;;;;;;10458623;28;20910;-72
2023/08/31 07:40:21;;;;;;;2.77;2.57;;;17.70;49.00;;;;;;10456459;28;20233;-72
2023/08/31 07:45:25;;;;;;;3.73;2.80;;;17.70;48.90;;;;;;10455952;28;20244;-73
2023/08/31 07:50:29;;;;;;;3.00;2.57;;;17.90;49.00;;;;;;10461136;28;20236;-72
2023/08/31 07:55:32;;;;;;;2.77;2.50;;;17.90;48.60;;;;;;10460480;28;20240;-72
2023/08/31 08:00:36;;;;;;;3.93;2.40;;;18.00;48.50;;;;;;10461695;28;20229;-71
2023/08/31 08:05:40;;;;;;;3.07;2.80;;;18.10;48.70;;;;;;10464151;28;20273;-73
2023/08/31 08:10:43;;;;;;;3.00;2.70;;;18.20;48.80;;;;;;10463061;28;20609;-72
2023/08/31 08:15:48;;;;;;;2.80;2.50;;;18.30;48.20;;;;;;10458342;28;20220;-72
2023/08/31 08:20:52;;;;;;;3.47;2.10;;;18.50;47.40;;;;;;10460032;28;20306;-72
2023/08/31 08:25:55;;;;;;;2.83;2.20;;;18.50;47.40;;;;;;10449178;28;20327;-72
2023/08/31 08:31:03;;;;;;;3.13;2.40;;;18.60;47.50;;;;;;10445615;28;20259;-72
2023/08/31 08:36:07;;;;;;;2.80;2.60;;;18.70;46.80;;;;;;10448145;28;20248;-73
2023/08/31 08:41:11;;;;;;;2.97;2.23;;;18.70;47.10;;;;;;10452396;28;20242;-72
2023/08/31 08:46:16;;;;;;;3.90;2.33;;;18.70;47.00;;;;;;10447198;28;20713;-72
2023/08/31 08:51:20;;;;;;;2.70;2.50;;;18.70;46.90;;;;;;10441575;28;20644;-72
2023/08/31 08:56:23;;;;;;;2.30;2.10;;;18.70;47.00;;;;;;10451379;28;20866;-72
2023/08/31 09:01:28;;;;;;;2.70;2.20;;;18.80;47.10;;;;;;10449937;28;20228;-71
2023/08/31 09:06:32;;;;;;;2.47;1.87;;;18.80;46.90;;;;;;10450132;28;20216;-72
2023/08/31 09:11:36;;;;;;;2.77;2.30;;;18.90;46.90;;;;;;10448453;28;20232;-72
2023/08/31 09:16:46;;;;;;;2.43;2.20;;;18.90;46.80;;;;;;10450715;28;20232;-72
2023/08/31 09:21:50;;;;;;;2.27;2.07;;;18.90;46.60;;;;;;10454386;28;20266;-72
2023/08/31 09:26:54;;;;;;;2.40;2.20;;;18.90;46.70;;;;;;10442060;28;20235;-72
2023/08/31 09:31:59;;;;;;;2.73;2.07;;;18.90;46.70;;;;;;10444095;28;20341;-72
2023/08/31 09:37:06;;;;;;;2.40;2.07;;;18.90;46.40;;;;;;10441547;28;20639;-72
2023/08/31 09:42:09;;;;;;;3.73;1.83;;;18.90;46.10;;;;;;10437618;28;20227;-71
2023/08/31 09:47:15;;;;;;;2.57;2.10;;;19.00;46.80;;;;;;10438125;28;20239;-72
2023/08/31 09:52:19;;;;;;;2.80;2.30;;;19.10;46.40;;;;;;10441103;28;20232;-72
2023/08/31 09:57:23;;;;;;;2.43;2.23;;;19.20;46.10;;;;;;10445091;28;20232;-72
2023/08/31 10:02:48;;;;;;;3.47;2.00;;;19.30;46.40;;;;;;10442813;28;20235;-72
2023/08/31 10:07:52;;;;;;;3.00;2.20;;;19.50;45.20;;;;;;10446081;28;20700;-72
2023/08/31 10:12:56;;;;;;;4.37;2.00;;;19.60;45.00;;;;;;10448469;28;20314;-72
2023/08/31 10:18:02;;;;;;;3.53;1.83;;;19.70;44.40;;;;;;10447330;28;20251;-72
2023/08/31 10:23:09;;;;;;;2.67;1.67;;;19.90;43.50;;;;;;10449737;28;20294;-72
2023/08/31 10:28:18;;;;;;;2.33;1.70;;;20.00;42.30;;;;;;10444479;28;20333;-72
2023/08/31 10:33:24;;;;;;;3.37;2.00;;;20.00;39.60;;;;;;10450469;28;20236;-73
2023/08/31 10:38:30;;;;;;;3.50;2.00;;;20.00;40.90;;;;;;10447584;28;20261;-72
2023/08/31 10:43:46;;;;;;;2.40;1.80;;;20.10;42.10;;;;;;10446099;28;20229;-72
2023/08/31 10:48:55;;;;;;;2.63;1.80;;;20.20;41.40;;;;;;10443619;28;20307;-72
2023/08/31 10:54:10;;;;;;;2.77;1.90;;;20.30;40.90;;;;;;10444659;28;20733;-73
2023/08/31 10:59:14;;;;;;;2.20;2.00;;;20.50;40.80;;;;;;10446175;28;20282;-72
2023/08/31 11:04:19;;;;;;;1.97;1.70;;;20.60;41.10;;;;;;10445755;28;20958;-72
2023/08/31 11:09:23;;;;;;;4.80;1.90;;;20.60;40.00;;;;;;10451943;28;20239;-72
2023/08/31 11:14:26;;;;;;;3.80;1.83;;;20.60;40.40;;;;;;10445134;28;20716;-72
2023/08/31 11:19:31;;;;;;;3.83;1.90;;;20.50;40.60;;;;;;10448092;28;20233;-72
2023/08/31 11:24:35;;;;;;;2.27;1.67;;;20.50;39.40;;;;;;10456247;28;20751;-72
2023/08/31 11:29:40;;;;;;;2.10;1.93;;;20.50;40.40;;;;;;10454265;28;20232;-72
2023/08/31 11:34:45;;;;;;;1.97;1.60;;;20.60;40.10;;;;;;10453374;28;20228;-72
2023/08/31 11:39:52;;;;;;;2.77;1.73;;;20.50;39.30;;;;;;10452224;28;20311;-72
2023/08/31 11:44:56;;;;;;;2.30;1.83;;;20.50;39.20;;;;;;10453231;28;20235;-72
2023/08/31 11:50:04;;;;;;;2.30;1.90;;;20.50;39.90;;;;;;10446167;28;20221;-72
2023/08/31 11:55:11;;;;;;;2.30;2.10;;;20.40;39.20;;;;;;10454129;28;20216;-72
2023/08/31 12:00:18;;;;;;;3.07;2.07;;;20.40;38.80;;;;;;10446079;28;20347;-72
2023/08/31 12:05:22;;;;;;;1.87;1.70;;;20.40;39.80;;;;;;10446271;28;20248;-72
2023/08/31 12:10:26;;;;;;;3.17;1.80;;;20.40;39.70;;;;;;10447039;28;20232;-72
2023/08/31 12:15:31;;;;;;;3.13;1.80;;;20.50;40.40;;;;;;10445071;28;20222;-72
2023/08/31 12:20:44;;;;;;;2.23;2.03;;;20.50;40.10;;;;;;10445542;28;20281;-72
2023/08/31 12:25:49;;;;;;;3.10;2.03;;;20.50;39.70;;;;;;10440809;28;20237;-72
2023/08/31 12:30:53;;;;;;;2.10;1.90;;;20.60;40.30;;;;;;10444842;28;20256;-72
2023/08/31 12:35:58;;;;;;;2.70;1.73;;;20.60;40.40;;;;;;10451679;28;20286;-72
2023/08/31 12:41:03;;;;;;;3.03;2.00;;;20.70;40.00;;;;;;10444860;28;20756;-72
2023/08/31 12:46:09;;;;;;;2.90;2.07;;;20.80;40.70;;;;;;10447535;28;20229;-71
2023/08/31 12:51:14;;;;;;;1.97;1.73;;;20.90;40.20;;;;;;10447492;28;20237;-71
2023/08/31 12:56:21;;;;;;;2.30;2.10;;;21.00;40.00;;;;;;10444557;28;20383;-71
2023/08/31 13:01:25;;;;;;;2.67;2.03;;;21.20;39.70;;;;;;10448391;28;20301;-72
2023/08/31 13:06:30;;;;;;;2.37;2.17;;;21.40;39.50;;;;;;10450918;28;20733;-70
2023/08/31 13:11:33;;;;;;;2.93;1.80;;;21.60;37.90;;;;;;10452164;28;20236;-70
2023/08/31 13:16:39;;;;;;;3.30;1.80;;;21.80;38.10;;;;;;10449952;28;20315;-70
2023/08/31 13:21:45;;;;;;;2.03;1.70;;;21.80;37.60;;;;;;10448703;28;20239;-71
2023/08/31 13:26:49;;;;;;;2.73;1.90;;;21.80;36.80;;;;;;10447190;28;20236;-70
2023/08/31 13:31:52;;;;;;;2.43;1.97;;;21.80;38.10;;;;;;10452843;28;20311;-71
2023/08/31 13:36:57;;;;;;;2.87;2.03;;;21.80;38.00;;;;;;10446987;28;20850;-70
2023/08/31 13:42:03;;;;;;;3.50;2.00;;;21.90;36.20;;;;;;10444208;28;20810;-71
2023/08/31 13:47:06;;;;;;;4.43;1.90;;;21.90;36.60;;;;;;10444677;28;20344;-71
2023/08/31 13:52:11;;;;;;;2.17;1.97;;;22.00;35.50;;;;;;10446632;28;20228;-71
2023/08/31 13:57:17;;;;;;;2.70;1.80;;;22.00;34.70;;;;;;10446826;28;20231;-70
2023/08/31 14:02:20;;;;;;;4.10;2.03;;;22.10;35.60;;;;;;10444354;28;20355;-70
2023/08/31 14:07:25;;;;;;;2.67;2.00;;;22.10;35.30;;;;;;10444339;28;20265;-70
2023/08/31 14:12:28;;;;;;;2.13;1.93;;;22.20;33.60;;;;;;10450441;28;20220;-71
2023/08/31 14:17:32;;;;;;;2.20;1.90;;;22.30;34.90;;;;;;10448092;28;20255;-71
2023/08/31 14:22:36;;;;;;;2.77;2.00;;;22.30;34.60;;;;;;10445850;28;20229;-70
2023/08/31 14:27:40;;;;;;;2.97;2.30;;;22.40;33.10;;;;;;10447994;28;20221;-70
2023/08/31 14:32:43;;;;;;;2.30;2.10;;;22.40;34.00;;;;;;10440406;28;20228;-70
2023/08/31 14:37:48;;;;;;;2.37;2.17;;;22.40;34.30;;;;;;10443734;28;20239;-70
2023/08/31 14:42:51;;;;;;;3.30;2.10;;;22.50;32.70;;;;;;10442341;28;20232;-70
2023/08/31 14:47:57;;;;;;;3.67;2.10;;;22.50;33.40;;;;;;10441083;28;20229;-70
2023/08/31 14:53:02;;;;;;;2.63;2.07;;;22.60;33.20;;;;;;10453760;28;20233;-70
2023/08/31 14:58:06;;;;;;;2.77;1.90;;;22.50;32.60;;;;;;10453475;28;20231;-71
2023/08/31 15:03:09;;;;;;;1.90;1.80;;;22.50;32.80;;;;;;10455641;28;20216;-70
2023/08/31 15:08:14;;;;;;;3.73;1.90;;;22.50;32.90;;;;;;10454958;28;20236;-71
2023/08/31 15:13:20;;;;;;;2.10;1.90;;;22.50;32.30;;;;;;10458270;28;20220;-70
2023/08/31 15:18:23;;;;;;;2.63;2.00;;;22.50;32.80;;;;;;10458055;28;20232;-70
2023/08/31 15:23:27;;;;;;;2.80;1.97;;;22.50;32.90;;;;;;10458852;28;20228;-70
2023/08/31 15:28:32;;;;;;;2.37;1.90;;;22.40;32.10;;;;;;10456069;28;20277;-70
2023/08/31 15:33:35;;;;;;;4.40;2.07;;;22.50;33.00;;;;;;10451215;28;20216;-70
2023/08/31 15:38:39;;;;;;;2.03;1.80;;;22.50;32.70;;;;;;10443997;28;20304;-71
2023/08/31 15:43:43;;;;;;;2.07;1.67;;;22.50;32.00;;;;;;10453989;28;20265;-71
2023/08/31 15:48:46;;;;;;;2.27;1.90;;;22.50;32.60;;;;;;10454452;28;20225;-71
2023/08/31 15:53:51;;;;;;;3.17;2.20;;;22.50;32.80;;;;;;10453356;28;20235;-70
2023/08/31 15:58:54;;;;;;;4.83;1.90;;;22.50;31.60;;;;;;10458439;28;20769;-71
2023/08/31 16:03:57;;;;;;;3.80;1.97;;;22.60;32.70;;;;;;10453052;28;20739;-71
2023/08/31 16:09:04;;;;;;;3.23;1.90;;;22.60;32.80;;;;;;10450616;28;20588;-74
2023/08/31 16:14:07;;;;;;;2.27;1.83;;;22.50;32.60;;;;;;10459070;28;20220;-71
2023/08/31 16:19:12;;;;;;;5.23;2.00;;;22.60;32.70;;;;;;10455334;28;20301;-71
2023/08/31 16:24:16;;;;;;;2.60;1.90;;;22.60;32.70;;;;;;10458442;28;20298;-70
2023/08/31 16:29:19;;;;;;;2.37;1.80;;;22.60;31.90;;;;;;10461405;28;20319;-71
2023/08/31 16:34:22;;;;;;;3.80;1.90;;;22.60;32.20;;;;;;10459492;28;20239;-74
2023/08/31 16:39:27;;;;;;;2.30;1.70;;;22.50;32.50;;;;;;10460574;28;20232;-71
2023/08/31 16:44:30;;;;;;;2.07;1.80;;;22.40;32.50;;;;;;10457959;28;20879;-71
2023/08/31 16:49:33;;;;;;;2.63;2.20;;;22.30;33.20;;;;;;10448462;28;20225;-71
2023/08/31 16:54:38;;;;;;;3.13;2.00;;;22.20;33.30;;;;;;10460396;28;20271;-71
2023/08/31 16:59:41;;;;;;;2.20;2.00;;;22.20;33.10;;;;;;10459844;28;20229;-71
2023/08/31 17:04:44;;;;;;;2.87;1.87;;;22.10;33.60;;;;;;10458808;28;20239;-70
2023/08/31 17:09:49;;;;;;;2.03;1.83;;;22.10;33.80;;;;;;10459288;28;20232;-71
2023/08/31 17:14:52;;;;;;;3.40;1.87;;;22.00;34.10;;;;;;10459035;28;20609;-71
2023/08/31 17:19:55;;;;;;;2.03;1.60;;;22.00;34.80;;;;;;10459314;28;20259;-71
2023/08/31 17:25:00;;;;;;;2.13;1.93;;;22.00;34.60;;;;;;10459693;28;20231;-70
2023/08/31 17:30:06;;;;;;;2.20;2.00;;;22.00;34.70;;;;;;10459260;28;20288;-71
2023/08/31 17:35:09;;;;;;;2.97;2.10;;;22.00;34.30;;;;;;10450681;28;20260;-71
2023/08/31 17:40:15;;;;;;;2.33;1.87;;;21.90;34.40;;;;;;10458045;28;20236;-71
2023/08/31 17:45:21;;;;;;;4.03;2.30;;;21.60;34.60;;;;;;10452205;28;20701;-71
2023/08/31 17:50:26;;;;;;;2.83;2.27;;;21.50;34.90;;;;;;10451183;28;20319;-71
2023/08/31 17:55:32;;;;;;;2.73;2.17;;;21.30;35.00;;;;;;10449260;28;20267;-71
2023/08/31 18:00:35;;;;;;;3.07;2.07;;;21.20;35.30;;;;;;10453871;28;20728;-71
2023/08/31 18:05:38;;;;;;;4.80;2.30;;;21.10;35.30;;;;;;10457252;28;20291;-71
2023/08/31 18:10:43;;;;;;;2.70;2.30;;;21.00;35.60;;;;;;10455455;28;20603;-71
2023/08/31 18:15:47;;;;;;;2.50;2.30;;;20.90;35.80;;;;;;10452970;28;20239;-71
2023/08/31 18:20:50;;;;;;;2.30;2.10;;;20.80;36.00;;;;;;10457698;28;20708;-71
2023/08/31 18:25:55;;;;;;;2.50;2.30;;;20.70;35.90;;;;;;10456602;28;20240;-71
2023/08/31 18:31:00;;;;;;;3.47;2.67;;;20.60;35.80;;;;;;10458854;28;20282;-71
2023/08/31 18:36:04;;;;;;;7.93;5.67;;;20.50;36.00;;;;;;10451438;28;20221;-72
2023/08/31 18:41:09;;;;;;;14.63;11.13;;;20.40;36.20;;;;;;10458799;28;20599;-71
2023/08/31 18:46:12;;;;;;;7.27;5.53;;;20.20;36.70;;;;;;10453589;28;20282;-71
2023/08/31 18:51:15;;;;;;;5.00;4.50;;;20.10;36.60;;;;;;10456295;28;20298;-71
2023/08/31 18:56:20;;;;;;;4.10;3.23;;;19.90;36.40;;;;;;10452825;28;20236;-71
2023/08/31 19:01:23;;;;;;;3.93;3.53;;;19.80;36.60;;;;;;10450021;28;20315;-71
2023/08/31 19:06:27;;;;;;;5.63;2.80;;;19.70;36.90;;;;;;10450023;28;20235;-71
2023/08/31 19:11:32;;;;;;;3.10;2.80;;;19.70;37.20;;;;;;10452741;28;20233;-71
2023/08/31 19:16:35;;;;;;;3.77;2.33;;;19.50;37.50;;;;;;10448515;28;20224;-71
2023/08/31 19:21:39;;;;;;;4.77;2.90;;;19.40;37.50;;;;;;10454187;28;20780;-70
2023/08/31 19:26:43;;;;;;;3.03;2.40;;;19.40;37.80;;;;;;10453415;28;20228;-71
2023/08/31 19:31:46;;;;;;;2.73;2.53;;;19.20;38.20;;;;;;10453243;28;20229;-71
2023/08/31 19:36:52;;;;;;;4.77;2.50;;;19.10;38.10;;;;;;10446449;28;20285;-71
2023/08/31 19:41:57;;;;;;;3.80;2.50;;;19.10;38.30;;;;;;10445542;28;20278;-71
2023/08/31 19:47:02;;;;;;;2.93;2.57;;;19.10;38.80;;;;;;10446875;28;20774;-71
2023/08/31 19:52:17;;;;;;;3.43;2.30;;;19.00;38.70;;;;;;10450287;28;20694;-71
2023/08/31 19:57:21;;;;;;;3.83;2.20;;;19.00;38.80;;;;;;10442884;28;20229;-71
2023/08/31 20:02:25;;;;;;;2.67;2.43;;;18.90;39.10;;;;;;10451236;28;20228;-71
2023/08/31 20:07:28;;;;;;;3.50;2.50;;;18.90;39.00;;;;;;10451554;28;20308;-71
2023/08/31 20:12:33;;;;;;;4.13;2.70;;;18.90;39.20;;;;;;10450107;28;20304;-71
2023/08/31 20:17:36;;;;;;;3.00;2.50;;;18.90;39.70;;;;;;10453518;28;20225;-71
2023/08/31 20:22:39;;;;;;;5.03;2.50;;;18.90;39.30;;;;;;10451373;28;20221;-72
2023/08/31 20:27:44;;;;;;;2.57;2.37;;;18.90;39.30;;;;;;10451618;28;20224;-71
2023/08/31 20:32:47;;;;;;;3.40;2.10;;;18.90;39.70;;;;;;10450563;28;20220;-71
2023/08/31 20:37:51;;;;;;;3.37;2.53;;;18.90;39.50;;;;;;10457609;28;20319;-71
2023/08/31 20:42:55;;;;;;;3.03;2.40;;;18.90;39.50;;;;;;10456348;28;20248;-71
2023/08/31 20:48:03;;;;;;;3.50;2.50;;;18.90;39.90;;;;;;10455831;28;20228;-71
2023/08/31 20:53:08;;;;;;;3.27;2.83;;;18.90;40.30;;;;;;10455848;28;20248;-72
2023/08/31 20:58:12;;;;;;;2.80;2.60;;;19.00;39.80;;;;;;10453713;28;20235;-71
2023/08/31 21:03:16;;;;;;;4.20;2.57;;;19.00;40.20;;;;;;10459344;28;20236;-72
2023/08/31 21:08:19;;;;;;;3.90;2.60;;;19.00;40.00;;;;;;10452477;28;20708;-72
2023/08/31 21:13:24;;;;;;;3.17;2.77;;;19.00;40.00;;;;;;10449804;28;20237;-71
2023/08/31 21:18:27;;;;;;;2.33;2.17;;;19.00;40.40;;;;;;10447824;28;20761;-72
2023/08/31 21:23:32;;;;;;;2.40;2.20;;;19.00;40.20;;;;;;10452506;28;20251;-72
2023/08/31 21:28:37;;;;;;;3.27;2.50;;;19.00;40.20;;;;;;10449202;28;20311;-72
2023/08/31 21:33:40;;;;;;;2.50;2.30;;;19.00;40.90;;;;;;10449834;28;20229;-71
2023/08/31 21:38:43;;;;;;;3.30;2.60;;;19.00;40.50;;;;;;10452449;28;20233;-72
2023/08/31 21:43:48;;;;;;;2.50;2.23;;;19.10;40.60;;;;;;10457008;28;20225;-72
2023/08/31 21:48:52;;;;;;;4.33;2.67;;;19.20;41.00;;;;;;10450022;28;20241;-72
2023/08/31 21:53:56;;;;;;;2.77;2.20;;;19.20;40.80;;;;;;10453214;28;20256;-72
2023/08/31 21:59:01;;;;;;;2.70;2.47;;;19.30;40.80;;;;;;10452922;28;20771;-71
2023/08/31 22:04:05;;;;;;;3.20;2.20;;;19.30;41.20;;;;;;10451974;28;20619;-72
2023/08/31 22:09:10;;;;;;;3.80;2.70;;;19.40;40.90;;;;;;10444361;28;20243;-72
2023/08/31 22:14:15;;;;;;;3.33;2.33;;;19.40;41.60;;;;;;10449506;28;20231;-72
2023/08/31 22:19:18;;;;;;;4.07;2.60;;;19.50;41.50;;;;;;10449724;28;20604;-72
2023/08/31 22:24:22;;;;;;;3.17;2.40;;;19.50;41.00;;;;;;10451875;28;20239;-72
2023/08/31 22:29:26;;;;;;;3.27;2.17;;;19.60;41.10;;;;;;10447332;28;20229;-72
2023/08/31 22:34:30;;;;;;;2.57;2.10;;;19.60;41.60;;;;;;10448879;28;20220;-72
2023/08/31 22:39:33;;;;;;;2.50;2.30;;;19.60;41.10;;;;;;10449818;28;20309;-72
2023/08/31 22:44:38;;;;;;;2.70;2.30;;;19.60;41.20;;;;;;10455156;28;20713;-72
2023/08/31 22:49:41;;;;;;;2.50;2.20;;;19.60;41.40;;;;;;10450287;28;20766;-72
2023/08/31 22:54:44;;;;;;;2.53;2.10;;;19.60;41.10;;;;;;10453765;28;20701;-72
2023/08/31 22:59:48;;;;;;;2.17;1.97;;;19.60;41.10;;;;;;10457996;28;20861;-71
2023/08/31 23:04:51;;;;;;;3.27;2.70;;;19.60;41.60;;;;;;10454568;28;20224;-72
2023/08/31 23:09:55;;;;;;;2.70;2.23;;;19.50;41.20;;;;;;10447829;28;20279;-72
2023/08/31 23:15:00;;;;;;;3.47;3.00;;;19.50;41.20;;;;;;10455849;28;20246;-72
2023/08/31 23:20:05;;;;;;;4.50;2.77;;;19.40;41.90;;;;;;10458725;28;20314;-72
2023/08/31 23:25:09;;;;;;;3.10;2.77;;;19.40;41.50;;;;;;10458644;28;23916;-72
2023/08/31 23:30:14;;;;;;;3.67;2.70;;;19.40;41.60;;;;;;10461623;28;20228;-72
2023/08/31 23:35:17;;;;;;;4.13;2.50;;;19.30;42.00;;;;;;10461024;28;20298;-72
2023/08/31 23:40:20;;;;;;;4.80;2.33;;;19.20;41.60;;;;;;10461724;28;20231;-72
2023/08/31 23:45:25;;;;;;;3.23;2.80;;;19.10;41.80;;;;;;10466182;28;20306;-72
2023/08/31 23:50:28;;;;;;;2.80;2.47;;;19.00;42.30;;;;;;10462897;28;20231;-72
2023/08/31 23:55:32;;;;;;;2.97;2.57;;;18.90;42.20;;;;;;10462447;28;21195;-72
